KMOP/MOP METAR and TAF weather

Enter ICAO airport designator
Station Type Date Time Source
KMOP METAR 2021/08/05 04:55 UTC NOAA

KMOP 050455Z AUTO 00000KT 10SM CLR 19/17 A3011 RMK AO2 T01850168


Station Type Date Time Source
KMOP Decoded METAR 2021/08/05 04:55 UTC NOAA

Mount Pleasant, Mount Pleasant Municipal Airport, MI, United States (KMOP) 43-37N 84-44W
Aug 05, 2021 - 12:55 AM EDT / 2021.08.05 0455 UTC
Wind: Calm:0
Visibility: 10 mile(s):0
Sky conditions: clear
Temperature: 65.3 F (18.5 C)
Dew Point: 62.2 F (16.8 C)
Relative Humidity: 89%
Pressure (altimeter): 30.11 in. Hg (1019 hPa)
ob: KMOP 050455Z AUTO 00000KT 10SM CLR 19/17 A3011 RMK AO2 T01850168
cycle: 5

Station Type Date Time Source
KMOP TAF UTC NOAA

Error!

Example: see airport list